Airfield :







YOU CAN JOIN US ON...

 
LOGIN :

Register | Disclaimer

   EN    FR    IT 

 









Legend :    VFR   Marginal VFR   IFR   Intensive IFR   Very Intensive IFR
Visi :
Ceiling :
>= 8 km
>= 3000ft
5 to 8 km
1000 to 3000 ft
1500m to 5 km
500 to 1000 ft
800 to 1500m
200 to 500 ft
< 800m
< 200 ft
Symbols :   Thunderstorms  Fog  Heavy snow  Heavy precipitations  Wind > 20 kt






- Airport Elevation : 83 ft


KBHB - Hancock County-Bar Harbor

CURRENT METAR :
  • 252156Z AUTO 00000KT 5SM -RA BR OVC016 05/04 A3030 RMK AO2 SLP263 P0002 T00500044

EXPIRED METARs :
  • 252056Z AUTO 18006KT 10SM -RA OVC018 04/03 A3031 RMK AO2 SLP266 P0000 60001 T00390028 56030
  • 251956Z AUTO 14004KT 10SM -RA OVC020 02/01 A3034 RMK AO2 SLP278 P0001 T00220011 FZRANO

TAF KBHB
Valid from the 25 at 22:00 until the 26 at 18:00 UTC


252210Z 2522/2618 18012KT P6SM VCSH OVC015
FM260300 21007KT P6SM VCSH OVC016
FM261200 09005KT 2SM -RA BR OVC005
KZBW FIR / North America



MET'MAP, your aeronautical weather chart ! - Copyright ORBIFLY December 2007 - Disclaimer

ORBIFLY MET'MAP TEAM :

Programming & Development : Alexandra Zaïnal
Concept & original design : Baudouin d'Aumeries
Assistance for programming : Marc-Olivier Méhu
Technical & hardware support : Manuel Goepfert

Contact : metmap@orbifly.com




SOURCES & CREDITS :

   NOAA